sensor_id;sensor_type;location;lat;lon;timestamp;P1;durP1;ratioP1;P2;durP2;ratioP2
74465;SDS011;62916;50.044;15.938;2022-11-20T00:00:01;9.30;;;7.70;;
74465;SDS011;62916;50.044;15.938;2022-11-20T00:02:32;7.90;;;6.90;;
74465;SDS011;62916;50.044;15.938;2022-11-20T00:05:03;9.20;;;7.40;;
74465;SDS011;62916;50.044;15.938;2022-11-20T00:07:34;9.10;;;7.30;;
74465;SDS011;62916;50.044;15.938;2022-11-20T00:10:06;8.60;;;7.40;;
74465;SDS011;62916;50.044;15.938;2022-11-20T00:12:37;9.50;;;7.90;;
74465;SDS011;62916;50.044;15.938;2022-11-20T00:15:09;9.20;;;7.40;;
74465;SDS011;62916;50.044;15.938;2022-11-20T00:17:40;9.20;;;7.80;;
74465;SDS011;62916;50.044;15.938;2022-11-20T00:20:12;9.10;;;7.50;;
74465;SDS011;62916;50.044;15.938;2022-11-20T00:22:43;9.80;;;7.90;;
74465;SDS011;62916;50.044;15.938;2022-11-20T00:25:14;9.50;;;7.00;;
74465;SDS011;62916;50.044;15.938;2022-11-20T00:27:45;9.40;;;7.30;;
74465;SDS011;62916;50.044;15.938;2022-11-20T00:30:16;9.70;;;8.00;;
74465;SDS011;62916;50.044;15.938;2022-11-20T00:32:47;9.50;;;7.50;;
74465;SDS011;62916;50.044;15.938;2022-11-20T00:35:18;8.50;;;7.20;;
74465;SDS011;62916;50.044;15.938;2022-11-20T00:37:49;11.10;;;7.60;;
74465;SDS011;62916;50.044;15.938;2022-11-20T00:40:20;8.20;;;7.10;;
74465;SDS011;62916;50.044;15.938;2022-11-20T00:42:50;11.40;;;7.70;;
74465;SDS011;62916;50.044;15.938;2022-11-20T00:45:21;10.30;;;7.70;;
74465;SDS011;62916;50.044;15.938;2022-11-20T00:47:52;8.80;;;7.50;;
74465;SDS011;62916;50.044;15.938;2022-11-20T00:50:23;8.70;;;7.30;;
74465;SDS011;62916;50.044;15.938;2022-11-20T00:52:53;9.50;;;7.10;;
74465;SDS011;62916;50.044;15.938;2022-11-20T00:55:24;10.90;;;7.10;;
74465;SDS011;62916;50.044;15.938;2022-11-20T00:57:55;9.30;;;7.40;;
74465;SDS011;62916;50.044;15.938;2022-11-20T01:00:31;8.50;;;7.60;;
74465;SDS011;62916;50.044;15.938;2022-11-20T01:03:01;8.50;;;7.40;;
74465;SDS011;62916;50.044;15.938;2022-11-20T01:05:35;8.20;;;7.10;;
74465;SDS011;62916;50.044;15.938;2022-11-20T01:08:06;8.60;;;6.90;;
74465;SDS011;62916;50.044;15.938;2022-11-20T01:10:39;7.50;;;6.70;;
74465;SDS011;62916;50.044;15.938;2022-11-20T01:13:10;9.60;;;7.10;;
74465;SDS011;62916;50.044;15.938;2022-11-20T01:16:14;8.80;;;6.80;;
74465;SDS011;62916;50.044;15.938;2022-11-20T01:18:47;8.50;;;6.90;;
74465;SDS011;62916;50.044;15.938;2022-11-20T01:21:20;9.60;;;7.40;;
74465;SDS011;62916;50.044;15.938;2022-11-20T01:23:53;10.10;;;7.30;;
74465;SDS011;62916;50.044;15.938;2022-11-20T01:26:26;9.60;;;7.20;;
74465;SDS011;62916;50.044;15.938;2022-11-20T01:28:59;8.80;;;7.20;;
74465;SDS011;62916;50.044;15.938;2022-11-20T01:31:31;9.80;;;6.80;;
74465;SDS011;62916;50.044;15.938;2022-11-20T01:34:02;8.90;;;7.30;;
74465;SDS011;62916;50.044;15.938;2022-11-20T01:36:35;9.20;;;7.40;;
74465;SDS011;62916;50.044;15.938;2022-11-20T01:39:07;7.90;;;6.90;;
74465;SDS011;62916;50.044;15.938;2022-11-20T01:41:42;9.80;;;7.60;;
74465;SDS011;62916;50.044;15.938;2022-11-20T01:44:50;8.70;;;6.80;;
74465;SDS011;62916;50.044;15.938;2022-11-20T01:47:31;8.60;;;7.40;;
74465;SDS011;62916;50.044;15.938;2022-11-20T01:50:08;9.30;;;7.70;;
74465;SDS011;62916;50.044;15.938;2022-11-20T01:52:44;9.10;;;6.60;;
74465;SDS011;62916;50.044;15.938;2022-11-20T01:55:19;9.60;;;7.40;;
74465;SDS011;62916;50.044;15.938;2022-11-20T01:57:52;9.30;;;7.40;;
74465;SDS011;62916;50.044;15.938;2022-11-20T02:00:23;10.10;;;7.90;;
74465;SDS011;62916;50.044;15.938;2022-11-20T02:02:56;9.20;;;7.30;;
74465;SDS011;62916;50.044;15.938;2022-11-20T02:05:31;8.50;;;6.60;;
74465;SDS011;62916;50.044;15.938;2022-11-20T02:08:06;8.20;;;6.70;;
74465;SDS011;62916;50.044;15.938;2022-11-20T02:10:37;9.60;;;7.20;;
74465;SDS011;62916;50.044;15.938;2022-11-20T02:13:08;8.60;;;7.20;;
74465;SDS011;62916;50.044;15.938;2022-11-20T02:15:56;9.00;;;7.30;;
74465;SDS011;62916;50.044;15.938;2022-11-20T02:18:27;8.90;;;6.80;;
74465;SDS011;62916;50.044;15.938;2022-11-20T02:21:00;8.80;;;7.10;;
74465;SDS011;62916;50.044;15.938;2022-11-20T02:23:38;9.00;;;7.30;;
74465;SDS011;62916;50.044;15.938;2022-11-20T02:26:13;9.20;;;7.40;;
74465;SDS011;62916;50.044;15.938;2022-11-20T02:28:47;9.30;;;7.20;;
74465;SDS011;62916;50.044;15.938;2022-11-20T02:31:18;9.00;;;7.00;;
74465;SDS011;62916;50.044;15.938;2022-11-20T02:33:53;9.60;;;7.60;;
74465;SDS011;62916;50.044;15.938;2022-11-20T02:36:26;9.60;;;7.60;;
74465;SDS011;62916;50.044;15.938;2022-11-20T02:39:00;8.70;;;6.70;;
74465;SDS011;62916;50.044;15.938;2022-11-20T02:41:34;8.00;;;6.70;;
74465;SDS011;62916;50.044;15.938;2022-11-20T02:44:07;9.80;;;7.20;;
74465;SDS011;62916;50.044;15.938;2022-11-20T02:46:37;8.20;;;6.70;;
74465;SDS011;62916;50.044;15.938;2022-11-20T02:49:08;9.20;;;7.70;;
74465;SDS011;62916;50.044;15.938;2022-11-20T02:51:39;9.60;;;7.20;;
74465;SDS011;62916;50.044;15.938;2022-11-20T02:54:10;9.40;;;6.80;;
74465;SDS011;62916;50.044;15.938;2022-11-20T02:56:40;9.80;;;7.50;;
74465;SDS011;62916;50.044;15.938;2022-11-20T02:59:11;9.60;;;7.60;;
74465;SDS011;62916;50.044;15.938;2022-11-20T03:01:42;8.20;;;7.10;;
74465;SDS011;62916;50.044;15.938;2022-11-20T03:04:13;8.40;;;6.50;;
74465;SDS011;62916;50.044;15.938;2022-11-20T03:06:44;8.30;;;6.40;;
74465;SDS011;62916;50.044;15.938;2022-11-20T03:09:15;8.90;;;7.40;;
74465;SDS011;62916;50.044;15.938;2022-11-20T03:11:47;8.40;;;7.10;;
74465;SDS011;62916;50.044;15.938;2022-11-20T03:14:17;9.40;;;8.10;;
74465;SDS011;62916;50.044;15.938;2022-11-20T03:16:48;9.30;;;7.50;;
74465;SDS011;62916;50.044;15.938;2022-11-20T03:19:19;8.70;;;7.30;;
74465;SDS011;62916;50.044;15.938;2022-11-20T03:21:50;8.00;;;7.10;;
74465;SDS011;62916;50.044;15.938;2022-11-20T03:24:21;8.20;;;6.70;;
74465;SDS011;62916;50.044;15.938;2022-11-20T03:26:52;7.80;;;7.00;;
74465;SDS011;62916;50.044;15.938;2022-11-20T03:29:23;8.80;;;7.20;;
74465;SDS011;62916;50.044;15.938;2022-11-20T03:31:54;8.50;;;6.70;;
74465;SDS011;62916;50.044;15.938;2022-11-20T03:34:25;7.70;;;6.40;;
74465;SDS011;62916;50.044;15.938;2022-11-20T03:36:56;8.90;;;6.70;;
74465;SDS011;62916;50.044;15.938;2022-11-20T03:39:27;8.10;;;6.70;;
74465;SDS011;62916;50.044;15.938;2022-11-20T03:41:57;10.20;;;7.40;;
74465;SDS011;62916;50.044;15.938;2022-11-20T03:44:28;8.80;;;6.90;;
74465;SDS011;62916;50.044;15.938;2022-11-20T03:46:59;9.60;;;6.70;;
74465;SDS011;62916;50.044;15.938;2022-11-20T03:49:32;8.40;;;7.00;;
74465;SDS011;62916;50.044;15.938;2022-11-20T03:52:02;8.60;;;7.10;;
74465;SDS011;62916;50.044;15.938;2022-11-20T03:54:33;8.50;;;6.70;;
74465;SDS011;62916;50.044;15.938;2022-11-20T03:57:05;9.60;;;7.00;;
74465;SDS011;62916;50.044;15.938;2022-11-20T03:59:35;8.80;;;6.70;;
74465;SDS011;62916;50.044;15.938;2022-11-20T04:02:06;8.50;;;6.40;;
74465;SDS011;62916;50.044;15.938;2022-11-20T04:04:37;10.70;;;7.10;;
74465;SDS011;62916;50.044;15.938;2022-11-20T04:07:08;8.30;;;7.10;;
74465;SDS011;62916;50.044;15.938;2022-11-20T04:09:39;9.20;;;7.20;;
74465;SDS011;62916;50.044;15.938;2022-11-20T04:12:10;8.80;;;6.60;;
74465;SDS011;62916;50.044;15.938;2022-11-20T04:14:40;8.90;;;6.80;;
74465;SDS011;62916;50.044;15.938;2022-11-20T04:17:11;8.70;;;7.10;;
74465;SDS011;62916;50.044;15.938;2022-11-20T04:19:42;8.30;;;6.30;;
74465;SDS011;62916;50.044;15.938;2022-11-20T04:22:13;9.30;;;7.30;;
74465;SDS011;62916;50.044;15.938;2022-11-20T04:24:43;8.70;;;6.90;;
74465;SDS011;62916;50.044;15.938;2022-11-20T04:27:14;8.20;;;6.40;;
74465;SDS011;62916;50.044;15.938;2022-11-20T04:29:44;8.90;;;7.10;;
74465;SDS011;62916;50.044;15.938;2022-11-20T04:32:15;9.00;;;7.30;;
74465;SDS011;62916;50.044;15.938;2022-11-20T04:34:46;8.50;;;7.20;;
74465;SDS011;62916;50.044;15.938;2022-11-20T04:37:17;8.70;;;7.10;;
74465;SDS011;62916;50.044;15.938;2022-11-20T04:39:48;9.20;;;6.50;;
74465;SDS011;62916;50.044;15.938;2022-11-20T04:42:19;8.20;;;6.60;;
74465;SDS011;62916;50.044;15.938;2022-11-20T04:44:59;9.00;;;6.20;;
74465;SDS011;62916;50.044;15.938;2022-11-20T04:47:30;8.30;;;6.80;;
74465;SDS011;62916;50.044;15.938;2022-11-20T04:50:00;8.60;;;6.90;;
74465;SDS011;62916;50.044;15.938;2022-11-20T04:52:31;7.40;;;6.20;;
74465;SDS011;62916;50.044;15.938;2022-11-20T04:55:03;8.90;;;6.70;;
74465;SDS011;62916;50.044;15.938;2022-11-20T04:57:35;7.80;;;6.10;;
74465;SDS011;62916;50.044;15.938;2022-11-20T05:00:07;8.30;;;6.70;;
74465;SDS011;62916;50.044;15.938;2022-11-20T05:02:39;8.40;;;6.20;;
74465;SDS011;62916;50.044;15.938;2022-11-20T05:05:10;7.60;;;6.60;;
74465;SDS011;62916;50.044;15.938;2022-11-20T05:07:41;7.90;;;6.40;;
74465;SDS011;62916;50.044;15.938;2022-11-20T05:10:12;8.00;;;6.30;;
74465;SDS011;62916;50.044;15.938;2022-11-20T05:12:43;8.00;;;6.80;;
74465;SDS011;62916;50.044;15.938;2022-11-20T05:15:14;8.80;;;6.60;;
74465;SDS011;62916;50.044;15.938;2022-11-20T05:17:48;8.40;;;6.20;;
74465;SDS011;62916;50.044;15.938;2022-11-20T05:20:20;8.60;;;6.30;;
74465;SDS011;62916;50.044;15.938;2022-11-20T05:22:51;8.30;;;5.90;;
74465;SDS011;62916;50.044;15.938;2022-11-20T05:27:54;7.50;;;6.20;;
74465;SDS011;62916;50.044;15.938;2022-11-20T05:30:25;7.50;;;6.00;;
74465;SDS011;62916;50.044;15.938;2022-11-20T05:32:55;9.40;;;6.20;;
74465;SDS011;62916;50.044;15.938;2022-11-20T05:35:26;7.90;;;7.10;;
74465;SDS011;62916;50.044;15.938;2022-11-20T05:37:57;8.60;;;6.60;;
74465;SDS011;62916;50.044;15.938;2022-11-20T05:40:28;7.40;;;5.70;;
74465;SDS011;62916;50.044;15.938;2022-11-20T05:42:59;7.90;;;6.50;;
74465;SDS011;62916;50.044;15.938;2022-11-20T05:45:29;7.50;;;6.30;;
74465;SDS011;62916;50.044;15.938;2022-11-20T05:48:00;7.70;;;5.90;;
74465;SDS011;62916;50.044;15.938;2022-11-20T05:50:31;9.70;;;6.10;;
74465;SDS011;62916;50.044;15.938;2022-11-20T05:53:02;7.60;;;6.30;;
74465;SDS011;62916;50.044;15.938;2022-11-20T05:55:33;9.70;;;6.80;;
74465;SDS011;62916;50.044;15.938;2022-11-20T05:58:03;7.90;;;6.00;;
74465;SDS011;62916;50.044;15.938;2022-11-20T06:00:34;8.10;;;5.90;;
74465;SDS011;62916;50.044;15.938;2022-11-20T06:03:05;8.30;;;5.80;;
74465;SDS011;62916;50.044;15.938;2022-11-20T06:05:36;7.70;;;6.30;;
74465;SDS011;62916;50.044;15.938;2022-11-20T06:08:06;9.00;;;6.20;;
74465;SDS011;62916;50.044;15.938;2022-11-20T06:10:37;8.90;;;6.70;;
74465;SDS011;62916;50.044;15.938;2022-11-20T06:13:08;8.00;;;6.50;;
74465;SDS011;62916;50.044;15.938;2022-11-20T06:15:39;7.60;;;6.00;;
74465;SDS011;62916;50.044;15.938;2022-11-20T06:18:09;8.50;;;6.90;;
74465;SDS011;62916;50.044;15.938;2022-11-20T06:20:40;9.10;;;6.80;;
74465;SDS011;62916;50.044;15.938;2022-11-20T06:23:10;9.60;;;6.60;;
74465;SDS011;62916;50.044;15.938;2022-11-20T06:25:42;6.90;;;5.60;;
74465;SDS011;62916;50.044;15.938;2022-11-20T06:28:13;7.10;;;6.00;;
74465;SDS011;62916;50.044;15.938;2022-11-20T06:30:46;6.90;;;5.50;;
74465;SDS011;62916;50.044;15.938;2022-11-20T06:33:16;7.70;;;6.10;;
74465;SDS011;62916;50.044;15.938;2022-11-20T06:35:47;6.10;;;5.10;;
74465;SDS011;62916;50.044;15.938;2022-11-20T06:38:26;7.10;;;5.80;;
74465;SDS011;62916;50.044;15.938;2022-11-20T06:40:57;7.60;;;6.30;;
74465;SDS011;62916;50.044;15.938;2022-11-20T06:43:28;7.10;;;6.00;;
74465;SDS011;62916;50.044;15.938;2022-11-20T06:45:59;7.00;;;5.70;;
74465;SDS011;62916;50.044;15.938;2022-11-20T06:48:29;8.50;;;6.20;;
74465;SDS011;62916;50.044;15.938;2022-11-20T06:51:00;7.20;;;6.40;;
74465;SDS011;62916;50.044;15.938;2022-11-20T06:53:34;7.20;;;5.30;;
74465;SDS011;62916;50.044;15.938;2022-11-20T06:56:06;7.00;;;5.50;;
74465;SDS011;62916;50.044;15.938;2022-11-20T06:58:37;6.80;;;5.40;;
74465;SDS011;62916;50.044;15.938;2022-11-20T07:01:09;6.60;;;5.40;;
74465;SDS011;62916;50.044;15.938;2022-11-20T07:03:41;7.40;;;5.60;;
74465;SDS011;62916;50.044;15.938;2022-11-20T07:06:18;7.10;;;5.30;;
74465;SDS011;62916;50.044;15.938;2022-11-20T07:08:49;6.50;;;5.20;;
74465;SDS011;62916;50.044;15.938;2022-11-20T07:11:21;7.60;;;5.50;;
74465;SDS011;62916;50.044;15.938;2022-11-20T07:13:52;6.70;;;5.30;;
74465;SDS011;62916;50.044;15.938;2022-11-20T07:16:22;7.30;;;5.30;;
74465;SDS011;62916;50.044;15.938;2022-11-20T07:18:53;6.20;;;5.10;;
74465;SDS011;62916;50.044;15.938;2022-11-20T07:21:24;5.70;;;5.00;;
74465;SDS011;62916;50.044;15.938;2022-11-20T07:23:55;6.80;;;5.90;;
74465;SDS011;62916;50.044;15.938;2022-11-20T07:26:26;7.80;;;5.50;;
74465;SDS011;62916;50.044;15.938;2022-11-20T07:28:57;7.30;;;5.20;;
74465;SDS011;62916;50.044;15.938;2022-11-20T07:31:27;7.00;;;5.90;;
74465;SDS011;62916;50.044;15.938;2022-11-20T07:33:58;6.90;;;5.10;;
74465;SDS011;62916;50.044;15.938;2022-11-20T07:36:29;6.70;;;5.60;;
74465;SDS011;62916;50.044;15.938;2022-11-20T07:39:00;6.90;;;5.60;;
74465;SDS011;62916;50.044;15.938;2022-11-20T07:41:31;9.90;;;5.70;;
74465;SDS011;62916;50.044;15.938;2022-11-20T07:44:01;6.40;;;5.70;;
74465;SDS011;62916;50.044;15.938;2022-11-20T07:46:33;9.50;;;6.80;;
74465;SDS011;62916;50.044;15.938;2022-11-20T07:49:04;9.70;;;7.70;;
74465;SDS011;62916;50.044;15.938;2022-11-20T07:51:34;10.50;;;8.00;;
74465;SDS011;62916;50.044;15.938;2022-11-20T07:54:05;10.50;;;7.60;;
74465;SDS011;62916;50.044;15.938;2022-11-20T07:56:36;11.80;;;8.00;;
74465;SDS011;62916;50.044;15.938;2022-11-20T07:59:07;11.90;;;9.10;;
74465;SDS011;62916;50.044;15.938;2022-11-20T08:01:39;13.10;;;9.50;;
74465;SDS011;62916;50.044;15.938;2022-11-20T08:04:10;12.80;;;8.80;;
74465;SDS011;62916;50.044;15.938;2022-11-20T08:06:43;13.70;;;9.50;;
74465;SDS011;62916;50.044;15.938;2022-11-20T08:09:14;12.20;;;8.60;;
74465;SDS011;62916;50.044;15.938;2022-11-20T08:11:46;12.70;;;9.40;;
74465;SDS011;62916;50.044;15.938;2022-11-20T08:14:34;14.40;;;9.60;;
74465;SDS011;62916;50.044;15.938;2022-11-20T08:17:05;13.30;;;9.10;;
74465;SDS011;62916;50.044;15.938;2022-11-20T08:19:36;13.20;;;9.40;;
74465;SDS011;62916;50.044;15.938;2022-11-20T08:22:06;16.50;;;10.00;;
74465;SDS011;62916;50.044;15.938;2022-11-20T08:24:37;13.30;;;10.40;;
74465;SDS011;62916;50.044;15.938;2022-11-20T08:27:08;14.00;;;8.90;;
74465;SDS011;62916;50.044;15.938;2022-11-20T08:29:38;12.90;;;8.30;;
74465;SDS011;62916;50.044;15.938;2022-11-20T08:32:09;12.20;;;8.60;;
74465;SDS011;62916;50.044;15.938;2022-11-20T08:34:40;11.80;;;8.30;;
74465;SDS011;62916;50.044;15.938;2022-11-20T08:37:11;11.40;;;8.70;;
74465;SDS011;62916;50.044;15.938;2022-11-20T08:39:42;11.60;;;8.60;;
74465;SDS011;62916;50.044;15.938;2022-11-20T08:42:12;10.50;;;7.90;;
74465;SDS011;62916;50.044;15.938;2022-11-20T08:44:43;10.80;;;8.40;;
74465;SDS011;62916;50.044;15.938;2022-11-20T08:47:14;12.90;;;8.10;;
74465;SDS011;62916;50.044;15.938;2022-11-20T08:49:45;11.50;;;8.20;;
74465;SDS011;62916;50.044;15.938;2022-11-20T08:52:16;11.30;;;8.40;;
74465;SDS011;62916;50.044;15.938;2022-11-20T08:54:46;9.20;;;7.90;;
74465;SDS011;62916;50.044;15.938;2022-11-20T08:57:17;11.60;;;7.60;;
74465;SDS011;62916;50.044;15.938;2022-11-20T08:59:48;10.10;;;7.80;;
74465;SDS011;62916;50.044;15.938;2022-11-20T09:02:33;10.40;;;8.10;;
74465;SDS011;62916;50.044;15.938;2022-11-20T09:05:05;9.40;;;7.70;;
74465;SDS011;62916;50.044;15.938;2022-11-20T09:07:36;10.60;;;7.70;;
74465;SDS011;62916;50.044;15.938;2022-11-20T09:10:08;10.80;;;8.10;;
74465;SDS011;62916;50.044;15.938;2022-11-20T09:12:55;9.80;;;7.40;;
74465;SDS011;62916;50.044;15.938;2022-11-20T09:15:26;8.90;;;7.20;;
74465;SDS011;62916;50.044;15.938;2022-11-20T09:17:58;10.30;;;6.80;;
74465;SDS011;62916;50.044;15.938;2022-11-20T09:20:30;8.70;;;7.20;;
74465;SDS011;62916;50.044;15.938;2022-11-20T09:23:01;9.30;;;7.40;;
74465;SDS011;62916;50.044;15.938;2022-11-20T09:25:32;8.80;;;7.20;;
74465;SDS011;62916;50.044;15.938;2022-11-20T09:28:03;9.40;;;7.50;;
74465;SDS011;62916;50.044;15.938;2022-11-20T09:30:34;10.10;;;7.00;;
74465;SDS011;62916;50.044;15.938;2022-11-20T09:33:05;9.40;;;7.40;;
74465;SDS011;62916;50.044;15.938;2022-11-20T09:35:36;9.80;;;7.30;;
74465;SDS011;62916;50.044;15.938;2022-11-20T09:38:07;9.90;;;6.40;;
74465;SDS011;62916;50.044;15.938;2022-11-20T09:40:40;9.20;;;7.50;;
74465;SDS011;62916;50.044;15.938;2022-11-20T09:43:17;8.70;;;6.50;;
74465;SDS011;62916;50.044;15.938;2022-11-20T09:45:56;9.20;;;7.10;;
74465;SDS011;62916;50.044;15.938;2022-11-20T09:48:42;8.10;;;6.20;;
74465;SDS011;62916;50.044;15.938;2022-11-20T09:51:30;8.40;;;6.20;;
74465;SDS011;62916;50.044;15.938;2022-11-20T09:54:13;8.10;;;6.20;;
74465;SDS011;62916;50.044;15.938;2022-11-20T09:56:49;7.70;;;6.90;;
74465;SDS011;62916;50.044;15.938;2022-11-20T09:59:26;8.80;;;6.30;;
74465;SDS011;62916;50.044;15.938;2022-11-20T10:02:08;7.90;;;6.70;;
74465;SDS011;62916;50.044;15.938;2022-11-20T10:04:49;6.70;;;5.90;;
74465;SDS011;62916;50.044;15.938;2022-11-20T10:07:27;7.60;;;6.00;;
74465;SDS011;62916;50.044;15.938;2022-11-20T10:10:13;7.50;;;6.30;;
74465;SDS011;62916;50.044;15.938;2022-11-20T10:13:02;7.90;;;6.20;;
74465;SDS011;62916;50.044;15.938;2022-11-20T10:18:21;6.40;;;5.40;;
74465;SDS011;62916;50.044;15.938;2022-11-20T10:21:01;7.10;;;5.70;;
74465;SDS011;62916;50.044;15.938;2022-11-20T10:23:43;6.50;;;5.20;;
74465;SDS011;62916;50.044;15.938;2022-11-20T10:26:25;6.90;;;5.30;;
74465;SDS011;62916;50.044;15.938;2022-11-20T10:29:09;7.20;;;6.00;;
74465;SDS011;62916;50.044;15.938;2022-11-20T10:31:42;7.00;;;6.00;;
74465;SDS011;62916;50.044;15.938;2022-11-20T10:34:21;7.30;;;6.10;;
74465;SDS011;62916;50.044;15.938;2022-11-20T10:36:56;6.30;;;5.60;;
74465;SDS011;62916;50.044;15.938;2022-11-20T10:39:35;6.50;;;5.80;;
74465;SDS011;62916;50.044;15.938;2022-11-20T10:42:12;8.00;;;6.00;;
74465;SDS011;62916;50.044;15.938;2022-11-20T10:44:47;6.90;;;5.60;;
74465;SDS011;62916;50.044;15.938;2022-11-20T10:47:33;6.90;;;5.90;;
74465;SDS011;62916;50.044;15.938;2022-11-20T10:50:05;6.20;;;4.90;;
74465;SDS011;62916;50.044;15.938;2022-11-20T10:52:51;7.60;;;6.00;;
74465;SDS011;62916;50.044;15.938;2022-11-20T10:55:32;7.00;;;5.80;;
74465;SDS011;62916;50.044;15.938;2022-11-20T11:00:42;6.10;;;4.80;;
74465;SDS011;62916;50.044;15.938;2022-11-20T11:03:19;7.30;;;5.00;;
74465;SDS011;62916;50.044;15.938;2022-11-20T11:05:56;6.70;;;5.60;;
74465;SDS011;62916;50.044;15.938;2022-11-20T11:08:36;6.80;;;5.50;;
74465;SDS011;62916;50.044;15.938;2022-11-20T11:11:10;6.30;;;5.40;;
74465;SDS011;62916;50.044;15.938;2022-11-20T11:13:50;6.60;;;5.80;;
74465;SDS011;62916;50.044;15.938;2022-11-20T11:16:21;5.80;;;5.20;;
74465;SDS011;62916;50.044;15.938;2022-11-20T11:21:33;7.00;;;5.20;;
74465;SDS011;62916;50.044;15.938;2022-11-20T11:24:15;6.00;;;4.50;;
74465;SDS011;62916;50.044;15.938;2022-11-20T11:27:12;5.70;;;5.10;;
74465;SDS011;62916;50.044;15.938;2022-11-20T11:29:46;7.30;;;5.40;;
74465;SDS011;62916;50.044;15.938;2022-11-20T11:32:18;5.70;;;5.10;;
74465;SDS011;62916;50.044;15.938;2022-11-20T11:34:59;6.60;;;5.10;;
74465;SDS011;62916;50.044;15.938;2022-11-20T11:37:34;5.50;;;4.80;;
74465;SDS011;62916;50.044;15.938;2022-11-20T11:42:56;5.30;;;4.70;;
74465;SDS011;62916;50.044;15.938;2022-11-20T11:45:30;6.00;;;4.80;;
74465;SDS011;62916;50.044;15.938;2022-11-20T11:48:01;5.20;;;4.70;;
74465;SDS011;62916;50.044;15.938;2022-11-20T11:50:37;5.60;;;4.90;;
74465;SDS011;62916;50.044;15.938;2022-11-20T11:53:19;6.00;;;5.30;;
74465;SDS011;62916;50.044;15.938;2022-11-20T11:55:56;5.20;;;4.70;;
74465;SDS011;62916;50.044;15.938;2022-11-20T11:58:38;5.20;;;4.70;;
74465;SDS011;62916;50.044;15.938;2022-11-20T12:01:17;5.80;;;5.20;;
74465;SDS011;62916;50.044;15.938;2022-11-20T12:03:58;5.10;;;4.40;;
74465;SDS011;62916;50.044;15.938;2022-11-20T12:06:33;5.40;;;4.30;;
74465;SDS011;62916;50.044;15.938;2022-11-20T12:09:10;5.60;;;4.90;;
74465;SDS011;62916;50.044;15.938;2022-11-20T12:11:43;5.10;;;4.60;;
74465;SDS011;62916;50.044;15.938;2022-11-20T12:14:19;5.20;;;4.70;;
74465;SDS011;62916;50.044;15.938;2022-11-20T12:16:57;5.50;;;4.80;;
74465;SDS011;62916;50.044;15.938;2022-11-20T12:19:29;5.90;;;4.60;;
74465;SDS011;62916;50.044;15.938;2022-11-20T12:22:04;5.40;;;4.80;;
74465;SDS011;62916;50.044;15.938;2022-11-20T12:24:46;5.90;;;5.00;;
74465;SDS011;62916;50.044;15.938;2022-11-20T12:27:39;5.70;;;4.70;;
74465;SDS011;62916;50.044;15.938;2022-11-20T12:30:21;5.10;;;4.70;;
74465;SDS011;62916;50.044;15.938;2022-11-20T12:36:10;5.70;;;4.80;;
74465;SDS011;62916;50.044;15.938;2022-11-20T12:38:57;6.40;;;4.60;;
74465;SDS011;62916;50.044;15.938;2022-11-20T12:41:43;5.90;;;5.20;;
74465;SDS011;62916;50.044;15.938;2022-11-20T12:44:43;5.20;;;4.60;;
74465;SDS011;62916;50.044;15.938;2022-11-20T12:47:42;5.20;;;4.20;;
74465;SDS011;62916;50.044;15.938;2022-11-20T12:50:27;5.00;;;4.50;;
74465;SDS011;62916;50.044;15.938;2022-11-20T12:53:27;5.10;;;4.50;;
74465;SDS011;62916;50.044;15.938;2022-11-20T12:56:06;5.90;;;4.40;;
74465;SDS011;62916;50.044;15.938;2022-11-20T12:58:51;5.20;;;4.60;;
74465;SDS011;62916;50.044;15.938;2022-11-20T13:01:35;4.60;;;4.20;;
74465;SDS011;62916;50.044;15.938;2022-11-20T13:04:18;5.60;;;5.10;;
74465;SDS011;62916;50.044;15.938;2022-11-20T13:07:01;4.60;;;4.10;;
74465;SDS011;62916;50.044;15.938;2022-11-20T13:09:37;5.30;;;4.60;;
74465;SDS011;62916;50.044;15.938;2022-11-20T13:12:15;5.20;;;4.70;;
74465;SDS011;62916;50.044;15.938;2022-11-20T13:14:53;5.50;;;5.00;;
74465;SDS011;62916;50.044;15.938;2022-11-20T13:17:36;6.00;;;4.50;;
74465;SDS011;62916;50.044;15.938;2022-11-20T13:20:13;4.90;;;4.10;;
74465;SDS011;62916;50.044;15.938;2022-11-20T13:22:47;6.30;;;4.70;;
74465;SDS011;62916;50.044;15.938;2022-11-20T13:25:23;4.80;;;4.30;;
74465;SDS011;62916;50.044;15.938;2022-11-20T13:27:56;4.80;;;4.30;;
74465;SDS011;62916;50.044;15.938;2022-11-20T13:30:29;4.90;;;4.40;;
74465;SDS011;62916;50.044;15.938;2022-11-20T13:33:03;5.70;;;4.60;;
74465;SDS011;62916;50.044;15.938;2022-11-20T13:35:37;4.80;;;4.30;;
74465;SDS011;62916;50.044;15.938;2022-11-20T13:38:11;4.90;;;4.40;;
74465;SDS011;62916;50.044;15.938;2022-11-20T13:40:51;4.70;;;4.20;;
74465;SDS011;62916;50.044;15.938;2022-11-20T13:43:26;4.70;;;4.20;;
74465;SDS011;62916;50.044;15.938;2022-11-20T13:46:04;5.90;;;5.00;;
74465;SDS011;62916;50.044;15.938;2022-11-20T13:48:40;6.70;;;5.30;;
74465;SDS011;62916;50.044;15.938;2022-11-20T13:51:20;5.60;;;4.60;;
74465;SDS011;62916;50.044;15.938;2022-11-20T13:57:06;5.00;;;4.50;;
74465;SDS011;62916;50.044;15.938;2022-11-20T13:59:48;6.20;;;5.60;;
74465;SDS011;62916;50.044;15.938;2022-11-20T14:02:26;6.30;;;4.80;;
74465;SDS011;62916;50.044;15.938;2022-11-20T14:04:58;5.50;;;4.70;;
74465;SDS011;62916;50.044;15.938;2022-11-20T14:07:34;6.50;;;4.70;;
74465;SDS011;62916;50.044;15.938;2022-11-20T14:10:19;6.40;;;5.20;;
74465;SDS011;62916;50.044;15.938;2022-11-20T14:12:58;6.50;;;4.90;;
74465;SDS011;62916;50.044;15.938;2022-11-20T14:18:14;8.00;;;4.50;;
74465;SDS011;62916;50.044;15.938;2022-11-20T14:20:49;5.10;;;4.40;;
74465;SDS011;62916;50.044;15.938;2022-11-20T14:23:24;5.10;;;4.60;;
74465;SDS011;62916;50.044;15.938;2022-11-20T14:25:57;6.60;;;4.70;;
74465;SDS011;62916;50.044;15.938;2022-11-20T14:28:29;6.30;;;5.20;;
74465;SDS011;62916;50.044;15.938;2022-11-20T14:31:00;5.20;;;4.50;;
74465;SDS011;62916;50.044;15.938;2022-11-20T14:33:31;5.20;;;4.30;;
74465;SDS011;62916;50.044;15.938;2022-11-20T14:36:04;5.40;;;4.80;;
74465;SDS011;62916;50.044;15.938;2022-11-20T14:38:45;4.60;;;4.10;;
74465;SDS011;62916;50.044;15.938;2022-11-20T14:41:18;6.10;;;4.40;;
74465;SDS011;62916;50.044;15.938;2022-11-20T14:43:52;5.70;;;4.90;;
74465;SDS011;62916;50.044;15.938;2022-11-20T14:46:25;7.40;;;4.40;;
74465;SDS011;62916;50.044;15.938;2022-11-20T14:48:57;6.10;;;4.90;;
74465;SDS011;62916;50.044;15.938;2022-11-20T14:51:31;5.90;;;4.60;;
74465;SDS011;62916;50.044;15.938;2022-11-20T14:54:14;4.50;;;4.10;;
74465;SDS011;62916;50.044;15.938;2022-11-20T14:56:54;5.70;;;4.80;;
74465;SDS011;62916;50.044;15.938;2022-11-20T14:59:27;5.90;;;4.90;;
74465;SDS011;62916;50.044;15.938;2022-11-20T15:02:00;6.10;;;4.60;;
74465;SDS011;62916;50.044;15.938;2022-11-20T15:04:33;5.90;;;5.00;;
74465;SDS011;62916;50.044;15.938;2022-11-20T15:07:22;5.60;;;4.60;;
74465;SDS011;62916;50.044;15.938;2022-11-20T15:10:01;5.00;;;4.50;;
74465;SDS011;62916;50.044;15.938;2022-11-20T15:12:36;5.80;;;4.90;;
74465;SDS011;62916;50.044;15.938;2022-11-20T15:15:10;5.70;;;4.60;;
74465;SDS011;62916;50.044;15.938;2022-11-20T15:17:45;5.20;;;4.70;;
74465;SDS011;62916;50.044;15.938;2022-11-20T15:20:17;5.60;;;4.50;;
74465;SDS011;62916;50.044;15.938;2022-11-20T15:22:50;6.20;;;4.90;;
74465;SDS011;62916;50.044;15.938;2022-11-20T15:25:22;5.20;;;4.60;;
74465;SDS011;62916;50.044;15.938;2022-11-20T15:27:54;5.60;;;4.50;;
74465;SDS011;62916;50.044;15.938;2022-11-20T15:30:26;5.60;;;4.70;;
74465;SDS011;62916;50.044;15.938;2022-11-20T15:32:57;5.50;;;4.90;;
74465;SDS011;62916;50.044;15.938;2022-11-20T15:35:28;5.60;;;4.90;;